»·PEaware :: N2MZ KSNA-KSMO

N2MZ :: KSNA-KSMO

FLIGHT INFORMATION

Flight Status: Arrived
Operator: Privately registered:
United States
More flights under this callsign
Pilot: Mike Z. (25595)
Aircraft: CESSNA 172 SKYHAWK
(C172)
More flights by this aircraft type
Origin: KSNA John Wayne-Orange Co
United States
Destination: KSMO Santa Monica Mun
United States
More flights between these airports :: More routes between these airports
Route: +SNA SLI V8 POXKU V363 BAYJY V186 DARTS SMO
File this flight plan on PilotEdge
Remarks: I-4 with TEC Route CSTP9
Altitude:
(Current/Filed)
6,000ft
Speed:
(Current/Filed)
115kts
Departed: 14-Sep-19 11:22 AM
Arrived: 14-Sep-19 12:04 PM
Distance/Time
Traveled:
35nm/0:42
Distance/Time
To Go:
Arrived

Flight Plot

Page will automatically refresh every two minutes.

Flight plan parsing failed; only flown route is shown


Map Options




Map Legend


Flown Route
Filed Route
Departure Airport
Arrival Airport
Navaid (VOR, NDB)
Fix

Horizontal Profiles

Position Reports

Time Latitude Longitude Heading Altitude Ground
Speed
14-Sep-19 10:58 33.676205 -117.871104 212 60ft 0kts
14-Sep-19 10:59 33.676205 -117.871104 212 60ft 0kts
14-Sep-19 11:00 33.676205 -117.871104 212 60ft 0kts
14-Sep-19 11:01 33.676205 -117.871104 212 60ft 0kts
14-Sep-19 11:02 33.676205 -117.871104 212 60ft 0kts
14-Sep-19 11:03 33.676205 -117.871104 212 60ft 0kts
14-Sep-19 11:04 33.676205 -117.871104 212 60ft 0kts
14-Sep-19 11:05 33.676205 -117.871104 212 60ft 0kts
14-Sep-19 11:06 33.676205 -117.871104 212 60ft 0kts
14-Sep-19 11:07 33.676205 -117.871104 212 60ft 0kts
14-Sep-19 11:08 33.676205 -117.871104 212 60ft 0kts
14-Sep-19 11:09 33.676205 -117.871104 212 60ft 0kts
14-Sep-19 11:10 33.676205 -117.871104 212 60ft 0kts
14-Sep-19 11:11 33.676205 -117.871104 212 60ft 0kts
14-Sep-19 11:12 33.676205 -117.871104 212 60ft 0kts
14-Sep-19 11:13 33.676205 -117.871104 212 60ft 0kts
14-Sep-19 11:14 33.675590 -117.870898 142 60ft 9kts
14-Sep-19 11:15 33.677929 -117.868903 28 60ft 29kts
14-Sep-19 11:16 33.681327 -117.866356 186 60ft 0kts
14-Sep-19 11:17 33.681326 -117.866356 186 60ft 0kts
14-Sep-19 11:18 33.681327 -117.866356 186 60ft 0kts
14-Sep-19 11:19 33.681327 -117.866356 186 60ft 0kts
14-Sep-19 11:20 33.681171 -117.866349 117 60ft 0kts
14-Sep-19 11:21 33.676533 -117.868320 208 66ft 71kts
14-Sep-19 11:22 33.661073 -117.884755 232 732ft 76kts
14-Sep-19 11:23 33.648897 -117.904645 232 1481ft 73kts
14-Sep-19 11:24 33.636298 -117.925330 232 2115ft 82kts
14-Sep-19 11:25 33.623975 -117.945789 232 2876ft 68kts
14-Sep-19 11:26 33.612494 -117.965095 232 3444ft 74kts
14-Sep-19 11:27 33.607162 -117.986897 314 4006ft 83kts
14-Sep-19 11:28 33.632378 -117.986953 7 4513ft 95kts
14-Sep-19 11:29 33.656440 -117.983151 7 5161ft 81kts
14-Sep-19 11:30 33.679308 -117.979546 7 5665ft 84kts
14-Sep-19 11:31 33.703071 -117.975792 6 6027ft 97kts
14-Sep-19 11:32 33.733626 -117.970842 6 6022ft 122kts
14-Sep-19 11:33 33.768526 -117.965099 6 6019ft 129kts
14-Sep-19 11:34 33.804422 -117.959426 11 6015ft 130kts
14-Sep-19 11:35 33.818403 -117.922521 78 6018ft 125kts
14-Sep-19 11:36 33.826788 -117.882051 76 6018ft 121kts
14-Sep-19 11:37 33.835476 -117.843664 75 6019ft 117kts
14-Sep-19 11:38 33.844049 -117.805855 76 6020ft 116kts
14-Sep-19 11:39 33.856805 -117.770413 19 6021ft 123kts
14-Sep-19 11:40 33.890558 -117.774775 354 6020ft 121kts
14-Sep-19 11:41 33.924002 -117.778485 357 6009ft 121kts
14-Sep-19 11:42 33.957600 -117.780672 358 6001ft 120kts
14-Sep-19 11:43 33.990885 -117.782452 338 6007ft 120kts
14-Sep-19 11:44 34.016625 -117.805549 291 6014ft 123kts
14-Sep-19 11:45 34.029095 -117.844118 290 6018ft 123kts
14-Sep-19 11:46 34.040063 -117.883678 288 6015ft 124kts
14-Sep-19 11:47 34.050401 -117.923442 287 6024ft 124kts
14-Sep-19 11:48 34.062791 -117.962336 292 6020ft 124kts
14-Sep-19 11:49 34.074950 -118.001411 291 6016ft 124kts
14-Sep-19 11:50 34.086536 -118.040732 290 6011ft 124kts
14-Sep-19 11:51 34.098649 -118.079927 291 6005ft 124kts
14-Sep-19 11:52 34.109368 -118.118418 282 5803ft 136kts
14-Sep-19 11:53 34.115810 -118.156959 282 5274ft 104kts
14-Sep-19 11:54 34.121569 -118.191462 282 4766ft 106kts
14-Sep-19 11:55 34.127866 -118.227807 282 4074ft 113kts
14-Sep-19 11:56 34.126550 -118.265774 257 3622ft 113kts
14-Sep-19 11:57 34.119217 -118.302540 252 3367ft 113kts
14-Sep-19 11:58 34.109102 -118.337616 239 3140ft 111kts
14-Sep-19 11:59 34.088963 -118.365361 217 2705ft 103kts
14-Sep-19 12:00 34.068293 -118.388762 222 2011ft 107kts
14-Sep-19 12:01 34.048096 -118.413241 220 1392ft 95kts
14-Sep-19 12:02 34.028784 -118.436018 222 616ft 95kts
14-Sep-19 12:03 34.013443 -118.454138 226 127ft 14kts
14-Sep-19 12:04 34.012882 -118.454002 130 126ft 0kts
14-Sep-19 12:05 34.012882 -118.454002 130 126ft 0kts
14-Sep-19 12:06 34.012728 -118.453353 77 127ft 7kts
14-Sep-19 12:07 34.013823 -118.452115 150 132ft 0kts
14-Sep-19 12:08 34.013823 -118.452115 150 132ft 0kts

Navigation Log

Ident Type
Flight plan parsing failed, navigation log unavailable